Time;durP1;ratioP1;P1;durP2;ratioP2;P2;SDS_P1;SDS_P2;PMS_P1;PMS_P2;Temp;Humidity;BMP_temperature;BMP_pressure;BME280_temperature;BME280_humidity;BME280_pressure;Samples;Min_cycle;Max_cycle;Signal;HPM_P1;HPM_P2
2022/11/03 00:00:10;;;;;;;4.32;1.65;;;;;;;10.14;88.40;101363.94;1020274;29;20315;-93
2022/11/03 00:00:43;;;;;;;11.65;3.33;;;;;;;10.13;88.09;101364.91;1020092;29;20366;-94
2022/11/03 00:01:14;;;;;;;4.72;1.40;;;;;;;10.09;88.41;101361.00;1018966;29;20303;-94
2022/11/03 00:01:47;;;;;;;9.40;2.05;;;;;;;10.11;88.43;101361.63;1020680;29;20303;-95
2022/11/03 00:02:19;;;;;;;13.05;2.65;;;;;;;10.08;88.96;101356.72;1012803;29;20799;-94
2022/11/03 00:02:51;;;;;;;13.85;2.22;;;;;;;10.08;88.41;101358.56;1013263;29;20304;-95
2022/11/03 00:03:23;;;;;;;8.45;1.98;;;;;;;10.07;89.10;101349.75;1016255;29;20688;-93
2022/11/03 00:03:54;;;;;;;8.15;1.80;;;;;;;9.99;89.35;101347.28;1017609;28;20303;-94
2022/11/03 00:04:26;;;;;;;7.70;2.60;;;;;;;9.97;89.21;101346.66;1028199;28;20302;-96
2022/11/03 00:06:03;;;;;;;6.78;2.17;;;;;;;9.97;89.31;101349.31;1027946;28;20325;-93
2022/11/03 00:06:04;;;;;;;8.57;2.25;;;;;;;9.95;89.31;101351.38;1024106;29;20737;-94
2022/11/03 00:06:36;;;;;;;11.88;2.47;;;;;;;9.92;89.20;101351.75;1029298;28;20716;-94
2022/11/03 00:07:08;;;;;;;4.05;1.42;;;;;;;9.89;90.08;101353.00;1029125;28;20305;-93
2022/11/03 00:07:40;;;;;;;12.63;2.10;;;;;;;9.89;89.83;101352.16;1024206;29;20295;-94
2022/11/03 00:08:11;;;;;;;12.65;3.70;;;;;;;9.87;89.76;101356.88;1021779;29;20307;-94
2022/11/03 00:10:33;;;;;;;12.00;3.10;;;;;;;9.92;89.50;101349.09;1026090;28;20776;-95
2022/11/03 00:13:36;;;;;;;8.80;1.92;;;;;;;9.86;89.98;101347.22;1024473;29;20282;-94
2022/11/03 00:14:09;;;;;;;10.50;1.67;;;;;;;9.84;89.54;101338.63;1020215;29;20311;-94
2022/11/03 00:14:41;;;;;;;7.68;2.03;;;;;;;9.89;90.21;101342.34;1020106;29;20636;-95
2022/11/03 00:15:12;;;;;;;12.02;1.50;;;;;;;9.90;89.74;101348.47;1022035;29;20318;-95
2022/11/03 00:15:48;;;;;;;9.00;2.42;;;;;;;9.84;89.75;101349.25;1024368;29;20325;-93
2022/11/03 00:16:19;;;;;;;4.75;1.42;;;;;;;9.84;89.59;101346.59;1019879;29;20302;-93
2022/11/03 00:16:51;;;;;;;5.97;1.90;;;;;;;9.83;90.44;101350.28;1021233;29;20650;-93
2022/11/03 00:17:23;;;;;;;10.23;1.92;;;;;;;9.84;89.86;101344.75;1026289;28;20314;-92
2022/11/03 00:17:54;;;;;;;8.30;2.40;;;;;;;9.82;89.86;101351.28;1024557;28;20306;-94
2022/11/03 00:18:26;;;;;;;12.13;2.97;;;;;;;9.83;90.05;101351.09;1027827;28;20298;-93
2022/11/03 00:18:58;;;;;;;10.15;2.28;;;;;;;9.83;90.74;101353.75;1023804;29;20301;-95
2022/11/03 00:19:29;;;;;;;9.13;3.25;;;;;;;9.82;90.40;101345.97;1024498;28;20291;-94
2022/11/03 00:20:01;;;;;;;7.72;1.88;;;;;;;9.81;90.59;101354.97;1023647;29;20302;-92
2022/11/03 00:20:33;;;;;;;11.30;3.15;;;;;;;9.81;90.97;101352.31;1020454;29;20310;-93
2022/11/03 00:21:07;;;;;;;11.82;2.30;;;;;;;9.79;90.33;101357.00;1016148;29;20311;-91
2022/11/03 00:21:39;;;;;;;8.45;2.38;;;;;;;9.84;90.35;101347.41;1011479;29;20314;-94
2022/11/03 00:22:10;;;;;;;10.52;2.00;;;;;;;9.83;90.45;101343.13;1015790;29;20455;-94
2022/11/03 00:22:42;;;;;;;9.35;2.40;;;;;;;9.81;90.85;101341.69;1020826;29;20291;-92
2022/11/03 00:23:13;;;;;;;5.68;1.85;;;;;;;9.82;90.80;101345.97;1019660;29;20307;-94
2022/11/03 00:23:45;;;;;;;8.35;2.47;;;;;;;9.79;90.22;101346.38;1012598;29;20298;-94
2022/11/03 00:24:17;;;;;;;9.75;3.28;;;;;;;9.78;91.08;101340.22;1013089;29;20309;-94
2022/11/03 00:24:48;;;;;;;12.90;4.80;;;;;;;9.80;90.47;101345.34;1012591;29;20316;-95
2022/11/03 00:25:20;;;;;;;9.50;2.42;;;;;;;9.83;90.82;101342.28;1017000;29;20341;-93
2022/11/03 00:25:51;;;;;;;17.85;3.65;;;;;;;9.86;90.60;101347.22;1016491;29;20311;-94
2022/11/03 00:26:25;;;;;;;7.93;1.83;;;;;;;9.83;91.05;101348.44;1024537;28;20306;-95
2022/11/03 00:26:56;;;;;;;13.80;2.97;;;;;;;9.84;91.23;101350.06;1024078;29;20294;-94
2022/11/03 00:27:28;;;;;;;4.05;1.25;;;;;;;9.83;91.15;101347.63;1024601;28;20370;-94
2022/11/03 00:27:59;;;;;;;7.10;2.05;;;;;;;9.83;90.85;101350.28;1021285;29;20351;-94
2022/11/03 00:28:32;;;;;;;11.63;3.17;;;;;;;9.76;91.54;101349.44;1020483;29;20303;-94
2022/11/03 00:29:09;;;;;;;4.32;1.25;;;;;;;9.73;91.54;101347.19;1023967;29;20295;-93
2022/11/03 00:29:40;;;;;;;22.63;4.10;;;;;;;9.73;91.54;101344.50;1022360;28;20295;-94
2022/11/03 00:30:12;;;;;;;6.53;2.00;;;;;;;9.80;91.01;101342.69;1017495;29;20682;-94
2022/11/03 00:30:44;;;;;;;14.50;3.17;;;;;;;9.83;90.72;101347.63;1016438;29;20308;-94
2022/11/03 00:31:21;;;;;;;10.95;3.60;;;;;;;9.84;90.95;101343.94;1023969;29;20314;-94
2022/11/03 00:31:52;;;;;;;8.40;2.03;;;;;;;9.86;90.64;101341.91;1028061;28;20290;-94
2022/11/03 00:32:24;;;;;;;9.40;2.00;;;;;;;9.85;90.34;101345.56;1023972;29;20298;-94
2022/11/03 00:32:57;;;;;;;10.40;2.03;;;;;;;9.82;90.61;101343.31;1020186;29;20786;-94
2022/11/03 00:33:31;;;;;;;9.43;2.20;;;;;;;9.81;91.03;101344.34;1020826;29;20303;-94
2022/11/03 00:34:04;;;;;;;8.73;2.15;;;;;;;9.79;90.64;101347.19;1025022;28;20282;-95
2022/11/03 00:34:35;;;;;;;5.03;1.73;;;;;;;9.80;90.86;101342.69;1028085;28;20819;-95
2022/11/03 00:35:07;;;;;;;9.20;1.77;;;;;;;9.79;90.71;101346.38;1027718;28;20309;-94
2022/11/03 00:35:39;;;;;;;14.90;3.15;;;;;;;9.79;90.78;101341.06;1028149;28;20317;-94
2022/11/03 00:36:24;;;;;;;7.28;2.75;;;;;;;9.79;91.15;101341.06;1028143;28;20638;-95
2022/11/03 00:36:56;;;;;;;10.65;2.13;;;;;;;9.71;90.84;101338.56;1028387;28;20286;-94
2022/11/03 00:37:27;;;;;;;9.85;2.83;;;;;;;9.69;91.61;101336.13;1028025;28;20301;-95
2022/11/03 00:37:59;;;;;;;7.57;2.35;;;;;;;9.71;90.88;101335.91;1024209;29;20298;-95
2022/11/03 00:38:31;;;;;;;7.30;1.77;;;;;;;9.69;91.25;101335.28;1020200;29;20291;-94
2022/11/03 00:39:04;;;;;;;12.57;3.00;;;;;;;9.60;91.95;101343.44;1020529;29;20298;-94
2022/11/03 00:39:35;;;;;;;5.57;2.13;;;;;;;9.60;91.63;101335.47;1028033;28;20313;-94
2022/11/03 00:40:09;;;;;;;9.30;2.13;;;;;;;9.68;91.62;101344.28;1024804;28;20671;-93
2022/11/03 00:40:41;;;;;;;7.82;2.47;;;;;;;9.66;91.83;101335.69;1025096;29;20286;-95
2022/11/03 00:41:13;;;;;;;7.30;2.70;;;;;;;9.71;91.63;101338.56;1017629;29;20304;-94
2022/11/03 00:41:44;;;;;;;13.40;3.15;;;;;;;9.64;92.53;101340.38;1025996;28;20294;-95
2022/11/03 00:42:16;;;;;;;13.77;2.10;;;;;;;9.63;92.47;101330.78;1025795;28;20354;-93
2022/11/03 00:42:48;;;;;;;8.45;2.30;;;;;;;9.62;92.32;101335.28;1025511;28;20282;-94
2022/11/03 00:43:21;;;;;;;10.32;2.47;;;;;;;9.63;92.25;101338.75;1028398;28;20816;-94
2022/11/03 00:43:53;;;;;;;10.10;2.15;;;;;;;9.67;92.40;101329.34;1024740;29;20298;-93
2022/11/03 00:44:26;;;;;;;10.43;2.10;;;;;;;9.70;91.77;101332.44;1024486;29;20306;-94
2022/11/03 00:44:57;;;;;;;14.88;2.50;;;;;;;9.68;92.14;101338.97;1027081;28;20293;-93
2022/11/03 00:45:29;;;;;;;7.75;1.55;;;;;;;9.73;92.22;101331.22;1025468;28;20315;-94
2022/11/03 00:46:01;;;;;;;10.93;2.17;;;;;;;9.73;91.42;101328.56;1024386;29;20315;-94
2022/11/03 00:46:34;;;;;;;11.35;3.33;;;;;;;9.76;91.72;101330.81;1021113;29;20299;-95
2022/11/03 00:47:06;;;;;;;11.13;2.92;;;;;;;9.76;91.48;101320.16;1022807;28;20299;-94
2022/11/03 00:48:28;;;;;;;7.88;1.92;;;;;;;9.78;91.06;101328.78;1021817;29;20299;-94
2022/11/03 00:48:31;;;;;;;8.43;3.00;;;;;;;9.76;91.23;101320.16;1024719;29;20290;-94
2022/11/03 00:49:03;;;;;;;15.10;2.75;;;;;;;9.81;91.33;101323.06;1016308;29;20749;-94
2022/11/03 00:49:35;;;;;;;11.77;2.55;;;;;;;9.80;91.32;101314.25;1024091;29;20357;-94
2022/11/03 00:50:07;;;;;;;10.70;1.80;;;;;;;9.80;91.22;101313.44;1027617;28;20749;-95
2022/11/03 00:50:38;;;;;;;7.13;1.75;;;;;;;9.81;91.24;101320.38;1021694;29;20810;-94
2022/11/03 00:51:10;;;;;;;8.15;1.83;;;;;;;9.84;90.82;101317.31;1024918;29;20341;-94
2022/11/03 00:51:42;;;;;;;6.65;2.17;;;;;;;9.83;91.07;101316.50;1025349;28;20307;-94
2022/11/03 00:52:13;;;;;;;6.07;1.95;;;;;;;9.83;90.76;101310.38;1024722;29;20330;-85
2022/11/03 00:52:45;;;;;;;10.52;2.45;;;;;;;9.85;90.96;101308.31;1019708;29;20368;-84
2022/11/03 00:53:16;;;;;;;5.80;1.75;;;;;;;9.86;90.50;101304.66;1023782;29;20306;-84
2022/11/03 00:53:53;;;;;;;9.90;2.20;;;;;;;9.86;90.42;101304.66;1020733;28;20299;-85
2022/11/03 00:54:24;;;;;;;8.10;1.92;;;;;;;9.85;90.89;101308.31;1024994;28;20649;-85
2022/11/03 00:54:56;;;;;;;8.77;2.72;;;;;;;9.83;91.06;101299.72;1026954;28;20296;-85
2022/11/03 00:55:28;;;;;;;5.25;2.28;;;;;;;9.82;90.53;101304.22;1020548;29;20299;-85
2022/11/03 00:55:59;;;;;;;12.85;2.30;;;;;;;9.82;90.68;101300.75;1020314;29;20302;-84
2022/11/03 00:56:41;;;;;;;8.85;1.98;;;;;;;9.82;90.92;101292.75;1020151;29;20306;-85
2022/11/03 00:57:12;;;;;;;13.57;3.08;;;;;;;9.82;91.19;101295.44;1019908;29;20666;-84
2022/11/03 00:57:44;;;;;;;10.68;2.38;;;;;;;9.84;91.05;101293.38;1021685;29;20798;-84
2022/11/03 00:58:15;;;;;;;12.50;2.20;;;;;;;9.85;90.67;101295.84;1025220;28;20382;-85
2022/11/03 00:58:48;;;;;;;8.10;2.00;;;;;;;9.84;90.87;101288.88;1024051;28;20666;-85
2022/11/03 00:59:20;;;;;;;8.65;3.50;;;;;;;9.83;90.52;101289.09;1027658;28;20305;-85
2022/11/03 00:59:51;;;;;;;6.75;2.00;;;;;;;9.83;91.20;101289.09;1015853;29;20319;-85
2022/11/03 01:00:23;;;;;;;9.95;1.73;;;;;;;9.82;90.95;101287.44;1016489;29;20341;-84
2022/11/03 01:01:01;;;;;;;6.78;1.73;;;;;;;9.83;90.82;101286.41;1016277;29;20300;-84
2022/11/03 01:01:41;;;;;;;17.02;4.70;;;;;;;9.85;91.19;101281.72;1022851;28;20295;-85
2022/11/03 01:02:17;;;;;;;9.27;2.22;;;;;;;9.82;91.09;101292.75;1019309;29;20311;-84
2022/11/03 01:02:49;;;;;;;11.02;2.38;;;;;;;9.79;90.90;101283.34;1019937;29;20300;-84
2022/11/03 01:03:20;;;;;;;5.38;1.83;;;;;;;9.78;91.44;101278.22;1019934;29;20303;-84
2022/11/03 01:06:49;;;;;;;3.47;1.55;;;;;;;9.72;91.15;101282.50;1033843;28;20399;-85
2022/11/03 01:07:21;;;;;;;10.07;3.22;;;;;;;9.67;92.10;101284.13;1027750;28;20310;-84
2022/11/03 01:07:52;;;;;;;11.63;2.50;;;;;;;9.69;91.41;101282.09;1018256;29;20138;-85
2022/11/03 01:08:24;;;;;;;10.18;2.00;;;;;;;9.69;91.49;101276.78;1016074;29;20308;-84
2022/11/03 01:08:58;;;;;;;12.70;2.58;;;;;;;9.68;92.28;101289.25;1018704;29;20311;-85
2022/11/03 01:09:34;;;;;;;8.32;1.75;;;;;;;9.66;92.17;101274.50;1024488;28;20306;-85
2022/11/03 01:10:07;;;;;;;8.40;3.72;;;;;;;9.66;91.88;101271.84;1023651;28;20317;-85
2022/11/03 01:11:42;;;;;;;4.13;1.98;;;;;;;9.66;92.46;101277.19;1019825;29;20686;-84
2022/11/03 01:11:42;;;;;;;9.95;2.28;;;;;;;9.72;91.87;101271.88;1019568;29;20701;-85
2022/11/03 01:12:17;;;;;;;11.45;2.78;;;;;;;9.72;92.26;101271.06;1027956;28;20741;-84
2022/11/03 01:12:48;;;;;;;9.98;2.17;;;;;;;9.76;92.25;101272.28;1024029;29;20310;-85
2022/11/03 01:13:20;;;;;;;8.07;1.90;;;;;;;9.72;91.78;101266.56;1031668;28;20698;-85
2022/11/03 01:13:51;;;;;;;11.43;3.10;;;;;;;9.71;91.94;101259.59;1023136;28;20322;-84
2022/11/03 01:14:28;;;;;;;8.02;1.98;;;;;;;9.81;91.75;101267.19;1023792;28;20306;-85
2022/11/03 01:15:00;;;;;;;9.15;2.95;;;;;;;9.76;91.70;101272.28;1015178;29;20371;-84
2022/11/03 01:15:31;;;;;;;13.35;3.58;;;;;;;9.77;91.61;101263.28;1017696;29;20308;-85
2022/11/03 01:16:03;;;;;;;11.50;1.70;;;;;;;9.75;91.99;101265.31;1024566;28;20317;-84
2022/11/03 01:16:35;;;;;;;6.53;2.97;;;;;;;9.75;91.70;101255.50;1029103;28;20313;-86
2022/11/03 01:17:12;;;;;;;14.57;2.00;;;;;;;9.72;91.57;101265.72;1026761;28;20811;-85
2022/11/03 01:17:44;;;;;;;14.60;2.15;;;;;;;9.74;91.35;101261.84;1026288;28;20326;-85
2022/11/03 01:18:15;;;;;;;7.93;2.58;;;;;;;9.72;91.63;101255.09;1017507;29;20646;-85
2022/11/03 01:18:47;;;;;;;15.27;2.05;;;;;;;9.70;91.52;101262.44;1022333;28;20299;-85
2022/11/03 01:19:19;;;;;;;9.88;2.47;;;;;;;9.68;91.68;101249.34;1019272;29;20303;-85
2022/11/03 01:19:51;;;;;;;6.07;2.28;;;;;;;9.66;92.30;101256.72;1016003;29;20303;-85
2022/11/03 01:20:22;;;;;;;11.23;2.03;;;;;;;9.66;92.69;101250.56;1027511;28;20302;-84
2022/11/03 01:20:55;;;;;;;7.15;1.80;;;;;;;9.62;92.33;101247.50;1024848;28;20699;-85
2022/11/03 01:21:27;;;;;;;5.38;2.65;;;;;;;9.63;92.68;101245.66;1022753;29;20311;-85
2022/11/03 01:21:58;;;;;;;9.88;2.20;;;;;;;9.59;92.51;101246.06;1021524;29;20307;-85
2022/11/03 01:22:30;;;;;;;10.32;1.42;;;;;;;9.62;92.61;101249.34;1020577;29;20379;-84
2022/11/03 01:23:02;;;;;;;4.50;2.30;;;;;;;9.66;92.81;101251.41;1024119;28;20661;-85
2022/11/03 01:23:34;;;;;;;10.35;2.05;;;;;;;9.67;92.30;101249.56;1028107;28;20357;-84
2022/11/03 01:24:06;;;;;;;9.07;4.15;;;;;;;9.66;92.26;101248.75;1027168;28;20360;-85
2022/11/03 01:24:41;;;;;;;5.43;2.08;;;;;;;9.67;92.89;101249.56;1023604;29;20322;-85
2022/11/03 01:25:13;;;;;;;11.70;2.53;;;;;;;9.68;92.61;101249.34;1019521;29;20334;-84
2022/11/03 01:25:44;;;;;;;14.88;2.97;;;;;;;9.69;92.57;101255.50;1020747;29;20322;-84
2022/11/03 01:26:16;;;;;;;13.30;2.70;;;;;;;9.72;92.25;101253.25;1024295;28;20335;-84
2022/11/03 01:26:48;;;;;;;7.75;1.95;;;;;;;9.69;92.61;101252.84;1021302;28;20386;-85
2022/11/03 01:27:23;;;;;;;8.98;1.88;;;;;;;9.68;92.30;101248.53;1031581;28;20899;-83
2022/11/03 01:27:54;;;;;;;12.82;2.33;;;;;;;9.66;92.69;101245.25;1020870;28;20706;-84
2022/11/03 01:28:26;;;;;;;15.20;3.42;;;;;;;9.65;92.89;101254.25;1025641;28;20791;-85
2022/11/03 01:28:59;;;;;;;6.28;1.85;;;;;;;9.66;92.78;101250.56;1022867;29;20306;-84
2022/11/03 01:29:30;;;;;;;13.20;2.08;;;;;;;9.69;92.60;101250.19;1024562;28;20310;-83
2022/11/03 01:30:02;;;;;;;13.00;2.47;;;;;;;9.73;92.90;101246.09;1028789;28;20290;-84
2022/11/03 01:30:34;;;;;;;7.32;2.08;;;;;;;9.71;93.02;101248.13;1024043;28;20295;-84
2022/11/03 01:31:14;;;;;;;7.72;2.13;;;;;;;9.72;92.57;101244.44;1022919;29;20299;-84
2022/11/03 01:31:46;;;;;;;16.15;4.80;;;;;;;9.72;92.72;101249.78;1022592;28;20303;-85
2022/11/03 01:32:18;;;;;;;5.88;2.38;;;;;;;9.71;92.25;101242.81;1027635;28;20497;-84
2022/11/03 01:32:49;;;;;;;11.18;2.35;;;;;;;9.71;92.64;101242.81;1027870;28;20417;-84
2022/11/03 01:33:21;;;;;;;11.93;3.00;;;;;;;9.74;92.41;101237.09;1019638;29;20386;-83
2022/11/03 01:33:54;;;;;;;6.55;2.08;;;;;;;9.76;92.25;101245.69;1023928;28;20310;-84
2022/11/03 01:34:26;;;;;;;11.95;3.15;;;;;;;9.75;92.38;101246.72;1019982;29;20307;-84
2022/11/03 01:34:58;;;;;;;10.27;2.70;;;;;;;9.75;92.24;101233.41;1023703;29;20306;-84
2022/11/03 01:35:29;;;;;;;8.48;2.85;;;;;;;9.75;92.57;101246.72;1019733;29;20311;-84
2022/11/03 01:36:01;;;;;;;4.03;1.77;;;;;;;9.72;92.64;101231.97;1023529;29;20298;-83
2022/11/03 01:36:32;;;;;;;14.27;2.80;;;;;;;9.75;91.96;101236.06;1022351;28;20856;-84
2022/11/03 01:37:04;;;;;;;7.82;2.35;;;;;;;9.74;92.82;101231.78;1027405;28;20306;-84
2022/11/03 01:37:36;;;;;;;8.73;2.17;;;;;;;9.73;91.85;101225.63;1023077;29;20311;-84
2022/11/03 01:38:07;;;;;;;5.10;2.70;;;;;;;9.79;92.26;101229.31;1024610;28;20669;-84
2022/11/03 01:38:39;;;;;;;9.07;2.67;;;;;;;9.79;92.39;101235.47;1023410;29;20669;-84
2022/11/03 01:39:13;;;;;;;9.25;3.30;;;;;;;9.79;92.16;101229.31;1023924;28;20309;-85
2022/11/03 01:39:44;;;;;;;7.65;2.03;;;;;;;9.81;92.44;101236.06;1023115;29;20382;-84
2022/11/03 01:40:16;;;;;;;6.05;2.35;;;;;;;9.82;92.26;101228.91;1024278;28;20307;-84
2022/11/03 01:40:47;;;;;;;13.18;2.10;;;;;;;9.82;92.39;101228.91;1024200;28;20731;-84
2022/11/03 01:41:22;;;;;;;11.50;2.55;;;;;;;9.85;91.75;101224.00;1024047;28;20316;-84
2022/11/03 01:41:54;;;;;;;15.07;2.10;;;;;;;9.85;92.22;101224.00;1026998;28;20362;-84
2022/11/03 01:42:25;;;;;;;11.95;2.30;;;;;;;9.87;91.53;101222.00;1020246;29;20789;-84
2022/11/03 01:43:17;;;;;;;6.70;2.13;;;;;;;9.89;91.69;101225.25;1023436;29;20302;-84
2022/11/03 01:44:06;;;;;;;12.07;1.80;;;;;;;9.89;91.38;101227.94;1018768;29;20295;-84
2022/11/03 01:44:45;;;;;;;10.13;1.85;;;;;;;9.87;91.46;101221.16;1023114;29;20337;-84
2022/11/03 01:45:17;;;;;;;10.20;2.70;;;;;;;9.85;92.06;101217.88;1019598;29;20314;-84
2022/11/03 01:46:23;;;;;;;10.73;2.97;;;;;;;9.91;91.28;101227.72;1027042;28;20778;-83
2022/11/03 01:47:02;;;;;;;10.27;2.58;;;;;;;9.90;90.92;101226.91;1017544;29;20304;-84
2022/11/03 01:47:34;;;;;;;9.13;2.40;;;;;;;9.88;91.22;101228.94;1013996;29;20296;-84
2022/11/03 01:48:07;;;;;;;7.80;2.17;;;;;;;9.89;91.49;101230.59;1020041;29;20311;-84
2022/11/03 01:48:43;;;;;;;11.55;3.30;;;;;;;9.89;91.32;101224.44;1023574;28;20295;-85
2022/11/03 01:49:23;;;;;;;18.58;2.38;;;;;;;9.91;91.46;101233.88;1022999;29;20303;-84
2022/11/03 01:50:05;;;;;;;12.32;2.03;;;;;;;9.95;91.45;101223.63;1023760;29;20298;-84
2022/11/03 01:50:36;;;;;;;6.22;2.30;;;;;;;9.94;91.72;101227.31;1015606;29;20067;-84
2022/11/03 01:51:10;;;;;;;11.88;2.42;;;;;;;9.93;90.95;101220.34;1022396;29;20801;-83
2022/11/03 01:51:42;;;;;;;7.10;2.35;;;;;;;9.95;91.13;101228.94;1021247;28;20315;-84
2022/11/03 01:52:32;;;;;;;9.73;1.83;;;;;;;9.94;90.90;101219.34;1022548;29;20299;-84
2022/11/03 01:53:05;;;;;;;4.72;2.00;;;;;;;9.94;90.85;101221.19;1027541;28;20314;-84
2022/11/03 01:53:40;;;;;;;11.25;3.08;;;;;;;9.91;91.17;101211.75;1018345;29;20058;-86
2022/11/03 01:54:15;;;;;;;15.98;2.60;;;;;;;9.92;91.23;101208.06;1010425;29;20302;-83
2022/11/03 01:54:50;;;;;;;7.22;2.10;;;;;;;9.91;91.39;101211.75;1015683;29;20311;-84
2022/11/03 01:55:26;;;;;;;9.38;1.40;;;;;;;9.89;91.45;101213.81;1017599;29;20739;-84
2022/11/03 01:55:58;;;;;;;11.80;1.92;;;;;;;9.86;91.56;101208.84;1017895;29;20671;-86
2022/11/03 01:56:31;;;;;;;8.30;2.35;;;;;;;9.85;91.33;101208.03;1015560;29;20735;-84
2022/11/03 01:57:07;;;;;;;12.65;1.75;;;;;;;9.85;91.51;101208.03;1016784;29;20371;-83
2022/11/03 01:57:44;;;;;;;7.43;2.22;;;;;;;9.87;91.23;101210.53;1016648;29;20326;-84
2022/11/03 01:58:18;;;;;;;9.48;2.03;;;;;;;9.84;91.89;101213.56;1017720;29;20304;-84
2022/11/03 01:58:53;;;;;;;11.18;1.95;;;;;;;9.85;92.15;101208.03;1009987;29;20835;-83
2022/11/03 01:59:24;;;;;;;14.45;2.85;;;;;;;9.86;91.98;101209.72;1021735;29;20729;-84
2022/11/03 01:59:57;;;;;;;12.13;2.50;;;;;;;9.85;92.21;101208.03;1020762;29;20303;-84
2022/11/03 02:00:29;;;;;;;12.88;1.98;;;;;;;9.88;91.71;101212.97;1020398;29;20358;-83
2022/11/03 02:01:01;;;;;;;8.77;2.53;;;;;;;9.91;91.82;101214.41;1023062;29;20306;-84
2022/11/03 02:01:33;;;;;;;5.38;1.92;;;;;;;9.89;91.70;101214.63;1016131;29;20322;-84
2022/11/03 02:02:05;;;;;;;14.30;2.85;;;;;;;9.88;91.68;101212.16;1012512;29;20460;-84
2022/11/03 02:02:37;;;;;;;9.05;2.78;;;;;;;9.86;91.73;101211.53;1019522;29;20848;-84
2022/11/03 02:03:09;;;;;;;11.63;2.85;;;;;;;9.84;91.81;101210.91;1015789;29;20296;-83
2022/11/03 02:03:45;;;;;;;8.15;2.25;;;;;;;9.84;91.58;101205.59;1016163;29;20300;-84
2022/11/03 02:04:20;;;;;;;7.60;2.10;;;;;;;9.83;92.06;101209.25;1019074;29;20307;-83
2022/11/03 02:04:53;;;;;;;9.90;2.38;;;;;;;9.88;92.10;101212.16;1025684;28;20840;-83
2022/11/03 02:05:25;;;;;;;8.88;2.33;;;;;;;9.81;92.04;101206.81;1031727;28;20306;-85
2022/11/03 02:05:57;;;;;;;7.28;1.30;;;;;;;9.81;92.19;101206.00;1024045;28;20310;-83
2022/11/03 02:06:30;;;;;;;9.35;2.33;;;;;;;9.82;92.04;101213.78;1022753;29;20315;-84
2022/11/03 02:07:07;;;;;;;10.70;1.70;;;;;;;9.85;92.10;101212.53;1020282;29;20651;-84
2022/11/03 02:07:51;;;;;;;5.40;1.75;;;;;;;9.83;92.02;101209.25;1024950;28;20318;-84
2022/11/03 02:08:46;;;;;;;4.75;1.83;;;;;;;9.82;91.73;101202.31;1028353;28;20310;-84
2022/11/03 02:09:18;;;;;;;6.50;1.90;;;;;;;9.84;91.99;101205.59;1023899;28;20737;-84
2022/11/03 02:09:50;;;;;;;12.02;1.70;;;;;;;9.81;92.20;101192.69;1018284;29;20317;-82
2022/11/03 02:10:23;;;;;;;8.15;1.33;;;;;;;9.85;92.07;101196.56;1027612;28;20392;-84
2022/11/03 02:10:55;;;;;;;8.02;2.03;;;;;;;9.85;92.30;101196.56;1020301;29;20782;-84
2022/11/03 02:12:19;;;;;;;11.75;2.80;;;;;;;9.76;92.42;101200.47;1021430;29;20310;-84
2022/11/03 02:12:50;;;;;;;7.82;2.33;;;;;;;9.77;92.34;101200.25;1023615;29;20306;-83
2022/11/03 02:13:26;;;;;;;8.13;1.80;;;;;;;9.77;92.17;101194.13;1022618;29;20382;-84
2022/11/03 02:13:57;;;;;;;13.07;1.98;;;;;;;9.81;92.12;101190.03;1022928;29;20299;-83
2022/11/03 02:14:29;;;;;;;9.30;2.10;;;;;;;9.84;91.90;101190.44;1023520;29;20298;-84
2022/11/03 02:15:04;;;;;;;10.13;2.78;;;;;;;9.82;92.48;101191.66;1024775;28;20437;-84
2022/11/03 02:15:37;;;;;;;9.98;1.70;;;;;;;9.83;92.16;101187.97;1032183;28;20799;-84
2022/11/03 02:16:08;;;;;;;13.45;1.85;;;;;;;9.81;92.39;101188.19;1031326;28;20309;-84
2022/11/03 02:16:43;;;;;;;8.93;2.17;;;;;;;9.81;92.13;101190.84;1025569;28;20705;-84
2022/11/03 02:17:19;;;;;;;9.40;2.63;;;;;;;9.81;92.41;101190.84;1019722;29;20298;-85
2022/11/03 02:17:53;;;;;;;12.13;2.70;;;;;;;9.83;92.22;101183.47;1010738;29;20796;-84
2022/11/03 02:18:27;;;;;;;12.45;3.00;;;;;;;9.88;91.71;101182.91;1015377;29;20321;-84
2022/11/03 02:19:00;;;;;;;9.70;2.53;;;;;;;9.89;91.94;101187.19;1015552;29;20348;-84
2022/11/03 02:19:40;;;;;;;6.05;1.92;;;;;;;9.89;91.59;101181.88;1019442;29;20302;-84
2022/11/03 02:20:18;;;;;;;10.60;2.47;;;;;;;9.90;91.53;101186.16;1019665;29;20315;-84
2022/11/03 02:21:01;;;;;;;7.18;2.00;;;;;;;9.90;91.47;101178.19;1021734;29;20693;-84
2022/11/03 02:21:40;;;;;;;6.45;1.80;;;;;;;9.94;91.69;101176.75;1019550;29;20864;-84
2022/11/03 02:22:35;;;;;;;4.05;1.45;;;;;;;9.94;91.36;101176.75;1018953;29;20295;-84
2022/11/03 02:23:46;;;;;;;11.43;2.05;;;;;;;9.92;91.70;101181.47;1019680;29;20304;-84
2022/11/03 02:24:25;;;;;;;9.80;2.13;;;;;;;9.97;91.35;101184.31;1023496;29;20828;-83
2022/11/03 02:25:27;;;;;;;9.80;3.08;;;;;;;9.96;91.09;101174.72;1021987;28;20307;-83
2022/11/03 02:25:59;;;;;;;6.40;2.08;;;;;;;9.97;91.16;101183.50;1022998;29;20307;-84
2022/11/03 02:26:31;;;;;;;16.42;2.63;;;;;;;9.94;91.47;101174.09;1027456;28;20309;-84
2022/11/03 02:27:03;;;;;;;9.48;1.63;;;;;;;9.94;90.96;101174.09;1023644;29;20357;-84
2022/11/03 02:27:34;;;;;;;7.53;1.65;;;;;;;9.94;91.27;101179.41;1019863;29;20350;-84
2022/11/03 02:28:06;;;;;;;5.78;3.20;;;;;;;9.96;91.02;101172.03;1018969;29;20307;-85
2022/11/03 02:28:38;;;;;;;9.57;1.73;;;;;;;9.95;90.68;101175.72;1020751;28;20308;-85
2022/11/03 02:29:09;;;;;;;8.20;2.00;;;;;;;9.94;91.04;101174.09;1021809;28;20306;-84
2022/11/03 02:29:41;;;;;;;11.80;2.13;;;;;;;9.94;91.38;101174.09;1023772;28;20306;-84
2022/11/03 02:30:13;;;;;;;10.20;2.20;;;;;;;9.95;91.08;101174.91;1027253;28;20297;-84
2022/11/03 02:31:13;;;;;;;7.55;1.48;;;;;;;9.92;91.46;101173.47;1017592;29;20304;-85
2022/11/03 02:31:57;;;;;;;10.88;1.95;;;;;;;9.90;91.39;101175.53;1027029;28;20302;-84
2022/11/03 02:32:34;;;;;;;8.73;1.55;;;;;;;9.86;91.54;101175.13;1025135;28;20855;-84
2022/11/03 02:33:23;;;;;;;10.30;2.75;;;;;;;9.84;91.19;101171.00;1023515;29;20290;-84
2022/11/03 02:33:55;;;;;;;8.82;1.73;;;;;;;9.84;91.60;101171.00;1015772;29;20304;-84
2022/11/03 02:34:31;;;;;;;7.03;2.17;;;;;;;9.85;91.83;101168.13;1018859;29;20390;-83
2022/11/03 02:35:27;;;;;;;10.38;1.83;;;;;;;9.86;91.25;101161.81;1026666;28;20306;-84
2022/11/03 02:36:06;;;;;;;8.98;2.67;;;;;;;9.82;91.48;101165.06;1027182;28;20297;-84
2022/11/03 02:36:43;;;;;;;5.00;1.25;;;;;;;9.83;91.60;101167.50;1030973;28;20345;-84
2022/11/03 02:37:20;;;;;;;12.95;3.60;;;;;;;9.85;91.69;101164.66;1031174;28;20298;-84
2022/11/03 02:37:54;;;;;;;7.40;1.90;;;;;;;9.85;91.38;101160.16;1025843;28;20302;-84
2022/11/03 02:38:27;;;;;;;5.38;1.58;;;;;;;9.82;91.18;101155.25;1023232;29;20381;-85
2022/11/03 02:39:15;;;;;;;11.77;2.20;;;;;;;9.80;91.49;101159.94;1017971;29;20659;-84
2022/11/03 02:39:51;;;;;;;4.95;1.90;;;;;;;9.79;91.91;101165.47;1014677;29;20682;-84
2022/11/03 02:40:29;;;;;;;9.45;2.38;;;;;;;9.69;92.08;101149.09;1021825;29;20306;-84
2022/11/03 02:41:04;;;;;;;11.00;3.22;;;;;;;9.72;91.99;101154.00;1022889;29;20647;-85
2022/11/03 02:41:37;;;;;;;8.40;2.60;;;;;;;9.80;91.78;101154.63;1030146;28;20297;-84
2022/11/03 02:42:09;;;;;;;5.55;2.35;;;;;;;9.78;92.05;101154.00;1023268;29;20879;-84
2022/11/03 02:42:44;;;;;;;5.18;1.70;;;;;;;9.77;92.00;101151.56;1020578;29;20318;-84
2022/11/03 02:43:17;;;;;;;11.40;2.28;;;;;;;9.74;92.00;101149.31;1016082;29;20370;-84
2022/11/03 02:43:49;;;;;;;13.25;2.20;;;;;;;9.74;91.82;101157.28;1020609;29;20343;-84
2022/11/03 02:44:21;;;;;;;4.13;2.05;;;;;;;9.73;92.35;101155.66;1023333;29;20322;-84
2022/11/03 02:44:54;;;;;;;9.93;2.38;;;;;;;9.73;92.24;101166.28;1023643;29;20291;-84
2022/11/03 02:45:26;;;;;;;9.82;1.83;;;;;;;9.67;92.14;101157.28;1025883;28;20301;-84
2022/11/03 02:45:59;;;;;;;5.75;2.38;;;;;;;9.68;92.61;101156.25;1019628;29;20317;-83
2022/11/03 02:46:32;;;;;;;7.20;1.77;;;;;;;9.68;92.45;101155.44;1019469;29;20694;-84
2022/11/03 02:47:07;;;;;;;11.25;3.05;;;;;;;9.66;92.49;101149.50;1027324;28;20298;-84
2022/11/03 02:47:39;;;;;;;12.32;2.53;;;;;;;9.64;92.67;101156.88;1023329;29;20378;-84
2022/11/03 02:48:14;;;;;;;5.25;1.63;;;;;;;9.60;92.83;101146.63;1023044;29;20322;-84
2022/11/03 02:48:46;;;;;;;14.43;5.22;;;;;;;9.59;92.43;101154.81;1023371;29;20361;-84